createdAt,value
2022-12-16T00:01:40.644Z,0.50
2022-12-16T00:04:08.348Z,0.50
2022-12-16T00:06:36.485Z,0.40
2022-12-16T00:09:04.351Z,0.30
2022-12-16T00:11:32.696Z,0.30
2022-12-16T00:14:00.903Z,0.40
2022-12-16T00:16:29.148Z,0.30
2022-12-16T00:18:56.813Z,0.60
2022-12-16T00:21:28.839Z,0.50
2022-12-16T00:23:57.159Z,0.70
2022-12-16T00:26:25.227Z,0.60
2022-12-16T00:28:52.797Z,0.50
2022-12-16T00:31:22.621Z,0.70
2022-12-16T00:33:50.371Z,0.60
2022-12-16T00:36:18.144Z,1.00
2022-12-16T00:38:45.681Z,0.60
2022-12-16T00:41:13.352Z,0.60
2022-12-16T00:43:40.929Z,0.70
2022-12-16T00:46:08.585Z,0.50
2022-12-16T00:48:36.279Z,0.90
2022-12-16T00:51:03.908Z,1.00
2022-12-16T00:53:32.010Z,1.00
2022-12-16T00:56:05.603Z,1.10
2022-12-16T00:58:33.287Z,0.90
2022-12-16T01:01:01.248Z,1.00
2022-12-16T01:03:29.270Z,0.70
2022-12-16T01:05:56.835Z,0.80
2022-12-16T01:08:24.485Z,0.40
2022-12-16T01:10:57.596Z,0.80
2022-12-16T01:13:26.014Z,0.60
2022-12-16T01:15:53.614Z,0.80
2022-12-16T01:18:21.598Z,0.70
2022-12-16T01:20:49.455Z,0.80
2022-12-16T01:23:17.164Z,0.60
2022-12-16T01:25:44.885Z,0.50
2022-12-16T01:28:12.436Z,0.70
2022-12-16T01:30:40.104Z,0.70
2022-12-16T01:33:07.698Z,0.50
2022-12-16T01:38:23.831Z,0.70
2022-12-16T01:40:51.765Z,0.90
2022-12-16T01:43:24.402Z,0.60
2022-12-16T01:45:54.127Z,0.90
2022-12-16T01:48:50.099Z,0.60
2022-12-16T01:51:26.771Z,0.50
2022-12-16T01:53:59.046Z,0.80
2022-12-16T01:56:31.784Z,0.50
2022-12-16T01:59:00.801Z,0.50
2022-12-16T02:01:28.850Z,0.60
2022-12-16T02:04:01.926Z,0.50
2022-12-16T02:06:30.748Z,0.60
2022-12-16T02:09:01.020Z,0.80
2022-12-16T02:12:02.613Z,0.40
2022-12-16T02:14:57.293Z,0.40
2022-12-16T02:17:46.602Z,0.70
2022-12-16T02:20:49.007Z,0.40
2022-12-16T02:23:22.837Z,0.80
2022-12-16T02:26:28.920Z,0.60
2022-12-16T02:29:21.493Z,0.70
2022-12-16T02:31:53.872Z,0.80
2022-12-16T02:34:39.428Z,0.60
2022-12-16T02:37:30.670Z,0.70
2022-12-16T02:40:21.688Z,0.60
2022-12-16T02:42:55.381Z,0.60
2022-12-16T02:45:29.882Z,0.70
2022-12-16T02:47:57.882Z,0.70
2022-12-16T02:50:36.600Z,0.50
2022-12-16T02:53:06.343Z,0.50
2022-12-16T02:56:12.619Z,0.70
2022-12-16T02:58:50.192Z,0.60
2022-12-16T03:01:27.576Z,0.50
2022-12-16T03:04:13.003Z,0.60
2022-12-16T03:06:44.332Z,0.60
2022-12-16T03:09:15.376Z,0.60
2022-12-16T03:11:45.072Z,0.70
2022-12-16T03:14:15.993Z,0.70
2022-12-16T03:16:45.325Z,0.60
2022-12-16T03:19:13.741Z,0.60
2022-12-16T03:22:00.880Z,0.70
2022-12-16T03:24:29.980Z,0.70
2022-12-16T03:27:07.896Z,0.60
2022-12-16T03:29:35.843Z,0.60
2022-12-16T03:32:13.639Z,0.60
2022-12-16T03:34:44.192Z,0.70
2022-12-16T03:37:13.912Z,0.90
2022-12-16T03:39:49.506Z,0.70
2022-12-16T03:42:18.144Z,0.70
2022-12-16T03:44:46.753Z,0.80
2022-12-16T03:47:21.495Z,1.00
2022-12-16T03:49:51.482Z,0.90
2022-12-16T03:52:19.102Z,0.80
2022-12-16T03:54:46.799Z,0.80
2022-12-16T03:57:15.663Z,0.80
2022-12-16T03:59:43.564Z,0.80
2022-12-16T04:02:11.597Z,0.80
2022-12-16T04:04:39.307Z,0.90
2022-12-16T04:07:24.695Z,0.80
2022-12-16T04:09:52.979Z,0.90
2022-12-16T04:12:39.944Z,1.00
2022-12-16T04:15:26.716Z,1.10
2022-12-16T04:18:12.743Z,1.00
2022-12-16T04:21:05.779Z,0.90
2022-12-16T04:23:53.972Z,0.90
2022-12-16T04:26:22.631Z,0.80
2022-12-16T04:28:50.188Z,1.00
2022-12-16T04:31:17.798Z,1.10
2022-12-16T04:34:03.719Z,1.10
2022-12-16T04:36:49.985Z,0.90
2022-12-16T04:39:36.155Z,0.90
2022-12-16T04:42:22.272Z,1.00
2022-12-16T04:45:08.759Z,0.90
2022-12-16T04:47:57.467Z,1.00
2022-12-16T04:50:43.684Z,1.10
2022-12-16T04:53:30.033Z,0.90
2022-12-16T04:56:16.459Z,0.90
2022-12-16T04:59:02.760Z,1.00
2022-12-16T05:01:49.293Z,1.20
2022-12-16T05:04:35.550Z,1.20
2022-12-16T05:07:23.384Z,1.10
2022-12-16T05:10:09.676Z,1.30
2022-12-16T05:12:55.655Z,1.20
2022-12-16T05:15:42.085Z,1.30
2022-12-16T05:18:30.465Z,1.30
2022-12-16T05:21:17.419Z,1.30
2022-12-16T05:24:03.840Z,1.40
2022-12-16T05:26:50.315Z,1.40
2022-12-16T05:29:36.740Z,1.40
2022-12-16T05:32:22.789Z,1.30
2022-12-16T05:35:09.053Z,1.00
2022-12-16T05:37:55.001Z,1.00
2022-12-16T05:40:41.039Z,1.40
2022-12-16T05:43:27.143Z,1.20
2022-12-16T05:46:13.013Z,1.50
2022-12-16T05:48:59.272Z,1.60
2022-12-16T05:51:45.144Z,1.40
2022-12-16T05:54:31.174Z,1.20
2022-12-16T05:57:17.387Z,1.20
2022-12-16T06:00:03.703Z,1.50
2022-12-16T06:02:57.884Z,1.30
2022-12-16T06:05:44.425Z,1.50
2022-12-16T06:08:30.779Z,1.40
2022-12-16T06:11:16.816Z,1.50
2022-12-16T06:14:03.199Z,1.40
2022-12-16T06:16:49.426Z,1.60
2022-12-16T06:19:35.792Z,1.50
2022-12-16T06:22:21.915Z,1.50
2022-12-16T06:25:07.919Z,1.70
2022-12-16T06:27:54.332Z,1.50
2022-12-16T06:30:40.482Z,1.80
2022-12-16T06:33:26.558Z,1.60
2022-12-16T06:36:12.467Z,1.80
2022-12-16T06:38:58.796Z,1.70
2022-12-16T06:41:44.864Z,1.80
2022-12-16T06:44:30.828Z,1.60
2022-12-16T06:47:17.272Z,1.70
2022-12-16T06:50:03.300Z,1.70
2022-12-16T06:52:49.962Z,1.80
2022-12-16T06:55:36.118Z,1.80
2022-12-16T06:58:22.217Z,1.70
2022-12-16T07:01:08.250Z,1.70
2022-12-16T07:03:54.313Z,1.80
2022-12-16T07:06:40.410Z,1.90
2022-12-16T07:09:26.541Z,1.70
2022-12-16T07:12:12.902Z,1.70
2022-12-16T07:14:58.822Z,1.90
2022-12-16T07:17:44.931Z,1.80
2022-12-16T07:20:30.945Z,1.80
2022-12-16T07:23:19.800Z,1.80
2022-12-16T07:26:06.343Z,1.70
2022-12-16T07:28:52.498Z,1.50
2022-12-16T07:31:38.726Z,1.40
2022-12-16T07:34:24.892Z,1.40
2022-12-16T07:37:21.580Z,1.40
2022-12-16T07:40:07.845Z,1.30
2022-12-16T07:42:53.930Z,1.60
2022-12-16T07:45:44.990Z,1.70
2022-12-16T07:48:31.555Z,1.70
2022-12-16T07:51:17.764Z,1.80
2022-12-16T07:54:03.916Z,1.60
2022-12-16T07:56:50.309Z,1.50
2022-12-16T07:59:36.373Z,1.50
2022-12-16T08:02:22.518Z,1.50
2022-12-16T08:05:08.831Z,1.50
2022-12-16T08:07:58.834Z,1.50
2022-12-16T08:10:45.295Z,1.80
2022-12-16T08:13:31.980Z,1.90
2022-12-16T08:16:18.116Z,2.00
2022-12-16T08:19:10.473Z,1.70
2022-12-16T08:21:57.419Z,1.60
2022-12-16T08:24:48.245Z,1.60
2022-12-16T08:27:37.618Z,1.80
2022-12-16T08:30:24.636Z,1.60
2022-12-16T08:33:18.541Z,1.50
2022-12-16T08:36:06.370Z,1.50
2022-12-16T08:38:52.997Z,1.80
2022-12-16T08:41:39.086Z,1.70
2022-12-16T08:44:25.431Z,1.70
2022-12-16T08:47:28.575Z,1.80
2022-12-16T08:50:14.987Z,1.80
2022-12-16T08:53:01.032Z,1.90
2022-12-16T08:55:47.160Z,1.90
2022-12-16T08:58:33.540Z,2.10
2022-12-16T09:01:20.012Z,2.00
2022-12-16T09:04:06.160Z,1.70
2022-12-16T09:06:52.658Z,1.60
2022-12-16T09:09:39.174Z,1.50
2022-12-16T09:12:25.230Z,1.70
2022-12-16T09:15:11.422Z,1.80
2022-12-16T09:17:57.906Z,2.10
2022-12-16T09:20:43.854Z,2.10
2022-12-16T09:23:30.390Z,2.10
2022-12-16T09:26:16.986Z,1.90
2022-12-16T09:29:03.157Z,2.00
2022-12-16T09:31:49.565Z,2.00
2022-12-16T09:34:35.504Z,1.90
2022-12-16T09:37:22.060Z,2.20
2022-12-16T09:40:08.156Z,2.20
2022-12-16T09:43:17.961Z,2.20
2022-12-16T09:46:16.754Z,2.20
2022-12-16T09:49:18.103Z,2.20
2022-12-16T09:52:05.647Z,2.20
2022-12-16T09:54:54.667Z,2.40
2022-12-16T09:57:43.327Z,2.20
2022-12-16T10:00:47.676Z,2.20
2022-12-16T10:03:57.829Z,2.40
2022-12-16T10:06:57.787Z,2.60
2022-12-16T10:09:59.689Z,2.50
2022-12-16T10:13:04.809Z,2.50
2022-12-16T10:16:04.721Z,2.40
2022-12-16T10:19:29.183Z,2.20
2022-12-16T10:22:21.834Z,2.20
2022-12-16T10:25:42.299Z,2.40
2022-12-16T10:28:57.173Z,2.50
2022-12-16T10:31:44.432Z,2.60
2022-12-16T10:34:34.122Z,2.60
2022-12-16T10:37:21.256Z,2.70
2022-12-16T10:40:17.307Z,2.80
2022-12-16T10:43:31.168Z,2.90
2022-12-16T10:46:18.971Z,2.60
2022-12-16T10:49:05.520Z,2.50
2022-12-16T10:51:51.644Z,2.60
2022-12-16T10:54:40.611Z,2.70
2022-12-16T10:57:53.155Z,2.60
2022-12-16T11:00:57.188Z,2.80
2022-12-16T11:03:47.067Z,2.80
2022-12-16T11:06:41.009Z,2.60
2022-12-16T11:09:48.313Z,2.90
2022-12-16T11:12:46.139Z,2.70
2022-12-16T11:15:41.641Z,2.70
2022-12-16T11:18:36.419Z,2.80
2022-12-16T11:21:31.760Z,2.90
2022-12-16T11:24:35.812Z,2.80
2022-12-16T11:27:24.930Z,2.90
2022-12-16T11:30:16.925Z,2.80
2022-12-16T11:33:12.632Z,2.80
2022-12-16T11:36:03.403Z,2.90
2022-12-16T11:39:09.262Z,3.20
2022-12-16T11:42:02.497Z,3.00
2022-12-16T11:45:12.864Z,3.20
2022-12-16T11:48:02.276Z,3.10
2022-12-16T11:50:51.406Z,3.00
2022-12-16T11:53:58.751Z,2.90
2022-12-16T11:56:54.415Z,2.80
2022-12-16T11:59:44.517Z,2.90
2022-12-16T12:02:53.812Z,2.80
2022-12-16T12:06:15.897Z,3.00
2022-12-16T12:09:22.377Z,3.00
2022-12-16T12:12:24.777Z,3.00
2022-12-16T12:15:29.288Z,3.00
2022-12-16T12:18:48.076Z,3.10
2022-12-16T12:21:45.729Z,3.00
2022-12-16T12:24:56.198Z,3.00
2022-12-16T12:27:54.567Z,3.10
2022-12-16T12:30:42.160Z,3.00
2022-12-16T12:33:42.839Z,2.90
2022-12-16T12:36:46.543Z,3.10
2022-12-16T12:39:42.076Z,2.90
2022-12-16T12:42:49.241Z,3.00
2022-12-16T12:46:13.705Z,3.10
2022-12-16T12:49:20.232Z,3.00
2022-12-16T12:52:25.225Z,2.90
2022-12-16T12:55:13.017Z,2.80
2022-12-16T12:58:01.781Z,2.80
2022-12-16T13:00:52.598Z,2.80
2022-12-16T13:04:03.049Z,2.80
2022-12-16T13:06:50.171Z,2.70
2022-12-16T13:09:49.327Z,2.60
2022-12-16T13:12:35.343Z,2.70
2022-12-16T13:15:24.724Z,2.70
2022-12-16T13:18:22.702Z,2.80
2022-12-16T13:21:16.861Z,2.80
2022-12-16T13:24:04.567Z,2.90
2022-12-16T13:26:53.059Z,2.90
2022-12-16T13:29:51.523Z,3.10
2022-12-16T13:32:39.834Z,3.30
2022-12-16T13:35:28.812Z,3.40
2022-12-16T13:38:14.852Z,3.40
2022-12-16T13:41:17.067Z,3.50
2022-12-16T13:44:15.549Z,3.30
2022-12-16T13:47:02.849Z,3.20
2022-12-16T13:49:55.032Z,3.10
2022-12-16T13:52:59.613Z,3.20
2022-12-16T13:55:45.838Z,3.20
2022-12-16T13:59:00.133Z,3.10
2022-12-16T14:02:16.393Z,3.20
2022-12-16T14:05:09.988Z,3.30
2022-12-16T14:08:00.111Z,3.40
2022-12-16T14:10:50.074Z,3.60
2022-12-16T14:14:04.412Z,3.60
2022-12-16T14:17:06.216Z,3.40
2022-12-16T14:19:55.746Z,3.50
2022-12-16T14:23:01.347Z,3.40
2022-12-16T14:25:48.620Z,3.50
2022-12-16T14:28:59.900Z,3.50
2022-12-16T14:32:00.364Z,3.50
2022-12-16T14:34:52.683Z,3.50
2022-12-16T14:37:47.997Z,3.50
2022-12-16T14:40:40.791Z,3.30
2022-12-16T14:43:33.482Z,3.30
2022-12-16T14:46:20.440Z,3.20
2022-12-16T14:49:08.163Z,3.10
2022-12-16T14:52:07.211Z,3.20
2022-12-16T14:55:02.116Z,3.10
2022-12-16T14:57:50.197Z,3.30
2022-12-16T15:00:38.741Z,3.10
2022-12-16T15:03:56.003Z,3.10
2022-12-16T15:06:49.945Z,3.10
2022-12-16T15:09:44.581Z,2.90
2022-12-16T15:12:32.687Z,2.80
2022-12-16T15:15:22.474Z,3.00
2022-12-16T15:18:12.794Z,2.90
2022-12-16T15:21:10.468Z,3.00
2022-12-16T15:24:02.935Z,3.00
2022-12-16T15:26:51.441Z,2.90
2022-12-16T15:29:58.745Z,2.70
2022-12-16T15:32:49.407Z,2.60
2022-12-16T15:35:44.678Z,2.60
2022-12-16T15:38:33.848Z,2.70
2022-12-16T15:41:21.858Z,3.10
2022-12-16T15:44:08.852Z,3.10
2022-12-16T15:46:55.772Z,3.10
2022-12-16T15:49:59.215Z,3.10
2022-12-16T15:53:03.171Z,3.10
2022-12-16T15:56:04.606Z,3.10
2022-12-16T15:58:54.092Z,3.10
2022-12-16T16:01:43.056Z,3.10
2022-12-16T16:04:43.676Z,3.20
2022-12-16T16:07:41.813Z,3.20
2022-12-16T16:10:43.513Z,3.10
2022-12-16T16:13:30.259Z,3.00
2022-12-16T16:16:16.737Z,2.90
2022-12-16T16:19:03.485Z,3.00
2022-12-16T16:21:49.588Z,3.10
2022-12-16T16:24:36.030Z,3.10
2022-12-16T16:27:25.389Z,3.10
2022-12-16T16:30:11.414Z,3.00
2022-12-16T16:32:57.554Z,2.90
2022-12-16T16:35:43.727Z,2.80
2022-12-16T16:38:30.315Z,2.90
2022-12-16T16:41:16.360Z,2.90
2022-12-16T16:44:02.545Z,3.00
2022-12-16T16:46:58.107Z,2.90
2022-12-16T16:49:44.126Z,2.90
2022-12-16T16:52:36.073Z,3.00
2022-12-16T16:55:30.780Z,3.00
2022-12-16T16:58:16.911Z,3.10
2022-12-16T17:01:03.361Z,3.00
2022-12-16T17:03:49.668Z,3.00
2022-12-16T17:06:35.812Z,3.00
2022-12-16T17:09:22.396Z,3.00
2022-12-16T17:12:08.499Z,2.90
2022-12-16T17:14:54.650Z,2.80
2022-12-16T17:17:41.047Z,2.80
2022-12-16T17:20:32.722Z,2.70
2022-12-16T17:23:18.983Z,2.80
2022-12-16T17:26:05.188Z,2.70
2022-12-16T17:29:11.181Z,2.80
2022-12-16T17:31:57.257Z,2.80
2022-12-16T17:34:43.479Z,2.80
2022-12-16T17:37:29.455Z,2.80
2022-12-16T17:40:15.525Z,2.80
2022-12-16T17:43:01.657Z,2.80
2022-12-16T17:45:47.890Z,2.80
2022-12-16T17:48:33.964Z,2.80
2022-12-16T17:51:21.610Z,2.80
2022-12-16T17:54:17.676Z,2.80
2022-12-16T17:57:07.966Z,2.80
2022-12-16T17:59:54.795Z,2.80
2022-12-16T18:02:41.774Z,2.80
2022-12-16T18:05:36.686Z,2.70
2022-12-16T18:08:25.747Z,2.80
2022-12-16T18:11:16.731Z,2.70
2022-12-16T18:14:03.233Z,2.60
2022-12-16T18:16:49.728Z,2.50
2022-12-16T18:19:36.527Z,2.60
2022-12-16T18:22:22.904Z,2.70
2022-12-16T18:25:10.826Z,2.60
2022-12-16T18:27:56.979Z,2.60
2022-12-16T18:30:46.413Z,2.70
2022-12-16T18:33:35.451Z,2.70
2022-12-16T18:36:23.173Z,2.60
2022-12-16T18:39:10.052Z,2.70
2022-12-16T18:42:01.854Z,2.70
2022-12-16T18:44:49.332Z,2.50
2022-12-16T18:47:36.683Z,2.60
2022-12-16T18:50:29.497Z,2.70
2022-12-16T18:53:18.359Z,2.70
2022-12-16T18:56:04.621Z,2.60
2022-12-16T18:58:54.012Z,2.70
2022-12-16T19:01:40.782Z,2.60
2022-12-16T19:04:27.289Z,2.40
2022-12-16T19:07:13.987Z,2.60
2022-12-16T19:10:01.029Z,2.60
2022-12-16T19:12:48.278Z,2.70
2022-12-16T19:15:40.891Z,2.60
2022-12-16T19:18:28.110Z,2.60
2022-12-16T19:21:16.776Z,2.60
2022-12-16T19:24:04.669Z,2.70
2022-12-16T19:26:51.640Z,2.70
2022-12-16T19:29:38.227Z,2.60
2022-12-16T19:32:24.971Z,2.60
2022-12-16T19:35:11.840Z,2.60
2022-12-16T19:37:59.383Z,2.60
2022-12-16T19:40:45.548Z,2.60
2022-12-16T19:43:31.734Z,2.60
2022-12-16T19:46:17.906Z,2.40
2022-12-16T19:49:04.788Z,2.40
2022-12-16T19:51:51.835Z,2.50
2022-12-16T19:54:38.190Z,2.50
2022-12-16T19:57:24.543Z,2.30
2022-12-16T20:00:13.444Z,2.40
2022-12-16T20:03:00.081Z,2.50
2022-12-16T20:05:46.739Z,2.50
2022-12-16T20:08:33.322Z,2.50
2022-12-16T20:11:26.845Z,2.50
2022-12-16T20:14:14.352Z,2.60
2022-12-16T20:17:01.224Z,2.50
2022-12-16T20:19:48.532Z,2.50
2022-12-16T20:22:35.558Z,2.50
2022-12-16T20:25:22.144Z,2.50
2022-12-16T20:28:11.656Z,2.60
2022-12-16T20:30:58.545Z,2.40
2022-12-16T20:33:45.071Z,2.50
2022-12-16T20:36:31.516Z,2.40
2022-12-16T20:39:17.801Z,2.50
2022-12-16T20:42:04.351Z,2.60
2022-12-16T20:44:50.382Z,2.60
2022-12-16T20:47:38.511Z,2.60
2022-12-16T20:50:25.216Z,2.50
2022-12-16T20:53:11.294Z,2.40
2022-12-16T20:55:57.331Z,2.50
2022-12-16T20:58:43.464Z,2.50
2022-12-16T21:01:30.240Z,2.50
2022-12-16T21:04:16.816Z,2.50
2022-12-16T21:07:04.889Z,2.60
2022-12-16T21:09:51.831Z,2.60
2022-12-16T21:12:38.651Z,2.50
2022-12-16T21:15:25.418Z,2.50
2022-12-16T21:18:11.690Z,2.50
2022-12-16T21:20:57.898Z,2.40
2022-12-16T21:23:44.463Z,2.40
2022-12-16T21:26:30.378Z,2.40
2022-12-16T21:29:17.619Z,2.40
2022-12-16T21:32:03.793Z,2.50
2022-12-16T21:34:51.794Z,2.50
2022-12-16T21:37:48.633Z,2.50
2022-12-16T21:40:34.718Z,2.40
2022-12-16T21:43:20.854Z,2.40
2022-12-16T21:46:13.746Z,2.30
2022-12-16T21:49:00.085Z,2.40
2022-12-16T21:51:46.043Z,2.40
2022-12-16T21:54:32.098Z,2.30
2022-12-16T21:57:18.120Z,2.30
2022-12-16T22:00:04.229Z,2.30
2022-12-16T22:02:57.222Z,2.30
2022-12-16T22:05:43.363Z,2.20
2022-12-16T22:08:29.957Z,2.30
2022-12-16T22:11:15.943Z,2.30
2022-12-16T22:14:02.205Z,2.30
2022-12-16T22:16:48.351Z,2.40
2022-12-16T22:19:34.578Z,2.30
2022-12-16T22:22:20.611Z,2.30
2022-12-16T22:25:14.049Z,2.30
2022-12-16T22:28:00.436Z,2.40
2022-12-16T22:30:46.515Z,2.40
2022-12-16T22:33:33.007Z,2.40
2022-12-16T22:36:21.113Z,2.40
2022-12-16T22:39:07.674Z,2.40
2022-12-16T22:41:54.328Z,2.40
2022-12-16T22:44:42.270Z,2.20
2022-12-16T22:47:28.276Z,2.30
2022-12-16T22:50:14.724Z,2.30
2022-12-16T22:53:00.800Z,2.40
2022-12-16T22:55:46.858Z,2.30
2022-12-16T22:58:32.909Z,2.20
2022-12-16T23:01:18.932Z,2.20
2022-12-16T23:04:05.134Z,2.20
2022-12-16T23:06:51.930Z,2.30
2022-12-16T23:09:38.109Z,2.30
2022-12-16T23:12:24.583Z,2.20
2022-12-16T23:15:14.844Z,2.10
2022-12-16T23:18:00.825Z,2.10
2022-12-16T23:20:47.020Z,2.00
2022-12-16T23:23:33.453Z,2.00
2022-12-16T23:26:21.022Z,2.10
2022-12-16T23:29:11.614Z,2.00
2022-12-16T23:31:58.319Z,2.00
2022-12-16T23:34:46.234Z,1.90
2022-12-16T23:37:33.530Z,1.90
2022-12-16T23:40:20.471Z,1.90
2022-12-16T23:43:07.122Z,1.90
2022-12-16T23:45:53.303Z,1.90
2022-12-16T23:48:42.263Z,1.90
2022-12-16T23:51:28.393Z,1.90
2022-12-16T23:54:14.846Z,1.90
2022-12-16T23:57:00.851Z,1.90
2022-12-16T23:59:46.807Z,1.90
